テヘラン の空港の天気 - METARとTAF

メヘラーバード国際空港(テヘラン) ( OIII / THR ) - イラン テヘラン
飛行場実況気象(Metar)
観測時間05/29 02:30 IRDT (05/28 22:00 UTC)
風向・風速静穏 0m/s
視程10km以上
天気現象
少しの雲 雲底高度 3050m
気温23℃
湿度14%
気圧1017hPa
METAROIII 282200Z 00000KT 9999 FEW100 23/M06 Q1017 A3004 NOSIG
過去の天気等 Google飛行場航空写真 Wunderground天気予報

過去48時間のMETAR

飛行場予報(TAF)
発表時間: 5/28 21:50 IRDT (5/28 17:20 UTC)
予報対象時間: 28日22時 IRDT ~ 30日4時 IRDT
風向・風速東北東 4m/s
視程8000m
少しの雲 雲底高度 1070m
29日4時 IRDT ~ 29日9時 IRDT に 確率 40% で一時的に
視程4000m
天気現象煙霧
29日13時 IRDT ~ 29日21時 IRDT に一時的に
風向・風速南南東 9m/s
少しの積乱雲 雲底高度 1070m
全天の4割程度の雲 雲底高度 1220m
全天の8割程度の雲 雲底高度 3050m
29日16時 IRDT ~ 29日19時 IRDT に 確率 40% で一時的に
視程4000m
天気現象しゅう雨
TAF OIII 281720Z 2818/2924 06008KT 8000 FEW035
PROB40 TEMPO 2900/2905 4000 HZ
TEMPO 2909/2917 16018KT FEW035CB SCT040 BKN100
PROB40 TEMPO 2912/2915 4000 SHRA